Time;durP1;ratioP1;P1;durP2;ratioP2;P2;SDS_P1;SDS_P2;PMS_P1;PMS_P2;Temp;Humidity;BMP_temperature;BMP_pressure;BME280_temperature;BME280_humidity;BME280_pressure;Samples;Min_cycle;Max_cycle;Signal;HPM_P1;HPM_P2
2023/11/05 00:01:23;;;;;;;5.53;1.95;;;11.70;99.90;;;;;;5088158;28;20028;-87
2023/11/05 00:03:49;;;;;;;5.78;2.08;;;11.70;99.90;;;;;;5078563;28;20021;-87
2023/11/05 00:06:18;;;;;;;7.05;2.30;;;11.60;99.90;;;;;;5074801;28;20411;-87
2023/11/05 00:08:43;;;;;;;7.07;1.83;;;11.70;99.90;;;;;;5092026;28;20023;-87
2023/11/05 00:11:12;;;;;;;7.50;1.92;;;11.70;99.90;;;;;;5094001;28;20016;-88
2023/11/05 00:13:40;;;;;;;9.50;2.50;;;11.70;99.90;;;;;;5071806;28;20376;-88
2023/11/05 00:16:08;;;;;;;8.43;1.85;;;11.70;99.90;;;;;;5094894;28;20020;-87
2023/11/05 00:18:36;;;;;;;8.55;1.90;;;11.70;99.90;;;;;;5094640;28;20095;-88
2023/11/05 00:21:08;;;;;;;4.65;1.85;;;11.70;99.90;;;;;;5073799;28;20562;-87
2023/11/05 00:23:36;;;;;;;6.45;1.95;;;11.70;99.90;;;;;;5074260;28;20067;-90
2023/11/05 00:26:05;;;;;;;9.20;2.08;;;11.70;99.90;;;;;;5078054;28;20387;-87
2023/11/05 00:28:33;;;;;;;7.60;2.38;;;11.70;99.90;;;;;;5082628;28;20031;-87
2023/11/05 00:31:02;;;;;;;6.93;1.90;;;11.70;99.90;;;;;;5069185;28;20036;-87
2023/11/05 00:33:32;;;;;;;7.68;2.03;;;11.70;99.90;;;;;;5073834;28;20044;-87
2023/11/05 00:36:01;;;;;;;6.27;1.63;;;11.70;99.90;;;;;;5057137;28;20024;-87
2023/11/05 00:38:27;;;;;;;5.78;1.85;;;11.70;99.90;;;;;;5079560;28;20761;-88
2023/11/05 00:40:53;;;;;;;6.10;1.60;;;11.70;99.90;;;;;;5094257;28;20089;-86
2023/11/05 00:43:21;;;;;;;6.95;2.30;;;11.70;99.90;;;;;;5092453;28;20016;-87
2023/11/05 00:45:49;;;;;;;6.30;1.75;;;11.70;99.90;;;;;;5077432;28;20048;-88
2023/11/05 00:48:15;;;;;;;6.10;2.00;;;11.80;99.90;;;;;;5077086;28;20047;-87
2023/11/05 00:50:41;;;;;;;7.40;1.98;;;11.70;99.90;;;;;;5093429;28;20032;-88
2023/11/05 00:53:12;;;;;;;6.57;1.80;;;11.70;99.90;;;;;;5093411;28;20039;-88
2023/11/05 00:55:38;;;;;;;7.32;2.00;;;11.70;99.90;;;;;;5094014;28;20012;-87
2023/11/05 00:58:04;;;;;;;6.93;1.70;;;11.70;99.90;;;;;;5072789;28;20416;-86
2023/11/05 01:00:29;;;;;;;7.97;1.98;;;11.70;99.90;;;;;;5056754;28;20035;-87
2023/11/05 01:02:55;;;;;;;5.63;1.98;;;11.70;99.90;;;;;;5104713;28;20032;-87
2023/11/05 01:05:21;;;;;;;4.43;1.55;;;11.70;99.90;;;;;;5074781;28;20024;-88
2023/11/05 01:07:50;;;;;;;6.97;1.77;;;11.70;99.90;;;;;;5100685;28;20032;-87
2023/11/05 01:10:15;;;;;;;3.72;1.30;;;11.70;99.90;;;;;;5077454;28;20060;-87
2023/11/05 01:12:42;;;;;;;5.75;1.75;;;11.70;99.90;;;;;;5093754;28;20028;-88
2023/11/05 01:15:10;;;;;;;5.38;1.30;;;11.70;99.90;;;;;;5092948;28;20081;-87
2023/11/05 01:17:36;;;;;;;6.93;1.73;;;11.70;99.90;;;;;;5062529;28;20028;-87
2023/11/05 01:20:02;;;;;;;6.18;1.55;;;11.70;99.90;;;;;;5087639;28;20066;-87
2023/11/05 01:22:31;;;;;;;6.97;1.98;;;11.70;99.90;;;;;;5077437;28;20028;-88
2023/11/05 01:24:56;;;;;;;6.28;1.48;;;11.80;99.90;;;;;;5104583;28;20035;-90
2023/11/05 01:27:22;;;;;;;5.90;1.60;;;11.80;99.90;;;;;;5117792;28;20016;-88
2023/11/05 01:29:48;;;;;;;5.95;1.77;;;11.80;99.90;;;;;;5118187;28;20027;-87
2023/11/05 01:32:13;;;;;;;7.75;1.85;;;11.80;99.90;;;;;;5114318;28;20046;-89
2023/11/05 01:34:42;;;;;;;6.07;1.90;;;11.80;99.90;;;;;;5090283;28;20082;-87
2023/11/05 01:37:08;;;;;;;7.63;2.25;;;11.80;99.90;;;;;;5074884;28;20028;-88
2023/11/05 01:39:37;;;;;;;5.68;1.83;;;11.90;99.90;;;;;;5073450;28;20036;-88
2023/11/05 01:42:03;;;;;;;6.80;2.33;;;11.90;99.90;;;;;;5078226;28;20020;-87
2023/11/05 01:44:31;;;;;;;6.03;1.75;;;11.90;99.90;;;;;;5094197;28;20069;-89
2023/11/05 01:46:57;;;;;;;5.68;1.80;;;11.90;99.90;;;;;;5094035;28;20032;-87
2023/11/05 01:49:23;;;;;;;7.35;2.00;;;11.90;99.90;;;;;;5092984;28;20135;-88
2023/11/05 01:51:51;;;;;;;6.38;2.05;;;11.90;99.90;;;;;;5089367;28;20111;-87
2023/11/05 01:54:17;;;;;;;5.57;1.60;;;11.90;99.90;;;;;;5074913;28;20021;-87
2023/11/05 01:56:45;;;;;;;5.18;2.10;;;11.90;99.90;;;;;;5087987;28;20026;-88
2023/11/05 01:59:11;;;;;;;6.13;1.80;;;11.90;99.90;;;;;;5081795;28;20513;-88
2023/11/05 02:01:41;;;;;;;5.20;1.60;;;11.90;99.90;;;;;;5084392;28;20060;-88
2023/11/05 02:04:10;;;;;;;4.60;1.42;;;11.90;99.90;;;;;;5075561;28;20570;-87
2023/11/05 02:06:36;;;;;;;5.97;1.88;;;11.90;99.90;;;;;;5072791;28;20054;-88
2023/11/05 02:09:03;;;;;;;5.35;1.70;;;11.90;99.90;;;;;;5092865;28;20124;-86
2023/11/05 02:11:29;;;;;;;6.03;2.20;;;11.90;99.90;;;;;;5071665;28;20059;-87
2023/11/05 02:13:58;;;;;;;4.78;1.65;;;11.90;99.90;;;;;;5075997;28;20024;-87
2023/11/05 02:16:30;;;;;;;6.75;2.22;;;11.90;99.90;;;;;;5092075;28;20032;-88
2023/11/05 02:18:57;;;;;;;7.97;2.08;;;11.90;99.90;;;;;;5092569;28;20162;-88
2023/11/05 02:21:29;;;;;;;6.55;1.90;;;11.90;99.90;;;;;;5075723;28;20055;-87
2023/11/05 02:23:55;;;;;;;6.00;1.58;;;11.90;99.90;;;;;;5093966;28;20116;-88
2023/11/05 02:26:23;;;;;;;5.70;1.60;;;11.90;99.90;;;;;;5087856;28;20032;-88
2023/11/05 02:28:49;;;;;;;5.93;1.60;;;11.90;99.90;;;;;;5082625;28;20028;-87
2023/11/05 02:31:17;;;;;;;4.13;1.45;;;11.90;99.90;;;;;;5094114;28;20128;-87
2023/11/05 02:33:45;;;;;;;4.72;1.60;;;11.90;99.90;;;;;;5096348;28;20449;-87
2023/11/05 02:36:11;;;;;;;4.97;1.50;;;11.90;99.90;;;;;;5096886;28;20387;-87
2023/11/05 02:38:38;;;;;;;4.85;1.63;;;11.90;99.90;;;;;;5092565;28;20020;-88
2023/11/05 02:41:06;;;;;;;6.40;1.33;;;11.90;99.90;;;;;;5096025;28;20091;-87
2023/11/05 02:43:32;;;;;;;5.10;1.35;;;11.90;99.90;;;;;;5078196;28;20051;-88
2023/11/05 02:46:02;;;;;;;5.68;2.00;;;11.90;99.90;;;;;;5093260;28;20040;-87
2023/11/05 02:48:27;;;;;;;5.80;1.42;;;11.90;99.90;;;;;;5095948;28;20499;-88
2023/11/05 02:50:54;;;;;;;6.47;1.88;;;11.90;99.90;;;;;;5094443;28;20087;-86
2023/11/05 02:53:21;;;;;;;4.85;1.55;;;11.90;99.90;;;;;;5096185;28;20020;-88
2023/11/05 02:55:46;;;;;;;4.15;1.42;;;11.90;99.90;;;;;;5096340;28;20086;-88
2023/11/05 02:58:13;;;;;;;5.65;2.00;;;11.90;99.90;;;;;;5079443;28;20468;-88
2023/11/05 03:00:50;;;;;;;6.68;1.58;;;11.90;99.90;;;;;;5104933;28;20034;-86
2023/11/05 03:03:16;;;;;;;4.57;1.20;;;11.90;99.90;;;;;;5120198;28;20046;-89
2023/11/05 03:05:43;;;;;;;4.38;1.58;;;11.90;99.90;;;;;;5120233;28;20004;-89
2023/11/05 03:08:12;;;;;;;4.68;1.50;;;11.90;99.90;;;;;;5102641;28;20114;-89
2023/11/05 03:10:38;;;;;;;5.00;1.42;;;11.90;99.90;;;;;;5109349;28;20483;-88
2023/11/05 03:13:06;;;;;;;5.95;1.55;;;11.90;99.90;;;;;;5076840;28;20029;-89
2023/11/05 03:15:34;;;;;;;7.15;1.40;;;11.90;99.90;;;;;;5095878;28;20024;-89
2023/11/05 03:18:00;;;;;;;4.65;1.17;;;11.90;99.90;;;;;;5079012;28;20489;-88
2023/11/05 03:20:27;;;;;;;4.03;1.30;;;11.90;99.90;;;;;;5095720;28;20032;-88
2023/11/05 03:22:53;;;;;;;4.43;1.30;;;11.90;99.90;;;;;;5082971;28;20456;-88
2023/11/05 03:25:19;;;;;;;3.75;1.33;;;11.90;99.90;;;;;;5092303;28;20127;-88
2023/11/05 03:27:44;;;;;;;5.88;1.27;;;11.90;99.90;;;;;;5058741;28;20033;-89
2023/11/05 03:30:11;;;;;;;3.92;1.15;;;11.90;99.90;;;;;;5086245;28;20039;-88
2023/11/05 03:32:41;;;;;;;3.22;1.20;;;11.90;99.90;;;;;;5095596;28;20020;-89
2023/11/05 03:35:10;;;;;;;4.72;1.35;;;11.90;99.90;;;;;;5095544;28;20063;-88
2023/11/05 03:37:37;;;;;;;4.57;1.05;;;11.90;99.90;;;;;;5067796;28;20021;-89
2023/11/05 03:40:03;;;;;;;3.60;0.80;;;11.90;99.90;;;;;;5075299;28;20036;-88
2023/11/05 03:42:30;;;;;;;3.88;1.15;;;11.90;99.90;;;;;;5076776;28;20024;-89
2023/11/05 03:45:05;;;;;;;3.00;1.00;;;11.90;99.90;;;;;;5078381;28;20055;-89
2023/11/05 03:47:33;;;;;;;3.13;1.00;;;11.90;99.90;;;;;;5094066;28;20027;-88
2023/11/05 03:50:02;;;;;;;3.85;1.52;;;11.90;99.90;;;;;;5095128;28;20032;-89
2023/11/05 03:52:30;;;;;;;4.60;1.17;;;11.90;99.90;;;;;;5094908;28;20517;-88
2023/11/05 03:54:57;;;;;;;3.60;0.88;;;11.90;99.90;;;;;;5096333;28;20078;-88
2023/11/05 03:57:30;;;;;;;3.90;1.23;;;11.90;99.90;;;;;;5095084;28;20026;-90
2023/11/05 03:59:59;;;;;;;2.20;0.60;;;11.90;99.90;;;;;;5095193;28;20035;-88
2023/11/05 04:02:24;;;;;;;2.45;0.90;;;11.90;99.90;;;;;;5095893;28;20051;-88
2023/11/05 04:04:51;;;;;;;2.20;0.90;;;11.90;99.90;;;;;;5094967;28;20459;-89
2023/11/05 04:07:21;;;;;;;2.85;0.85;;;11.90;99.90;;;;;;5078512;28;20540;-88
2023/11/05 04:09:47;;;;;;;2.60;0.93;;;11.90;99.90;;;;;;5095760;28;20036;-88
2023/11/05 04:12:12;;;;;;;2.67;0.68;;;11.90;99.90;;;;;;5094967;28;20028;-88
2023/11/05 04:14:40;;;;;;;3.22;0.90;;;11.90;99.90;;;;;;5095892;28;20452;-89
2023/11/05 04:17:06;;;;;;;2.70;0.80;;;11.90;99.90;;;;;;5094817;28;20027;-88
2023/11/05 04:19:32;;;;;;;3.95;0.80;;;11.90;99.90;;;;;;5094199;28;20040;-89
2023/11/05 04:21:57;;;;;;;2.67;0.80;;;11.90;99.90;;;;;;5095611;28;20047;-88
2023/11/05 04:24:28;;;;;;;1.15;0.65;;;11.90;99.90;;;;;;5094534;28;20361;-90
2023/11/05 04:27:11;;;;;;;;;;;;;;;;;;;;;
2023/11/05 04:29:37;;;;;;;4.20;1.05;;;11.90;99.90;;;;;;5095053;28;20046;-88
2023/11/05 04:32:03;;;;;;;1.33;0.60;;;11.90;99.90;;;;;;5094403;28;20107;-88
2023/11/05 04:34:32;;;;;;;2.88;0.75;;;12.00;99.90;;;;;;5094625;28;20016;-89
2023/11/05 04:37:00;;;;;;;3.15;0.85;;;11.90;99.90;;;;;;5103329;28;20011;-88
2023/11/05 04:39:26;;;;;;;4.65;0.98;;;11.90;99.90;;;;;;5119219;28;20016;-89
2023/11/05 04:41:55;;;;;;;3.40;0.73;;;12.00;99.90;;;;;;5119409;28;20099;-89
2023/11/05 04:44:21;;;;;;;3.17;0.65;;;11.90;99.90;;;;;;5118726;28;20011;-90
2023/11/05 04:46:47;;;;;;;5.28;0.98;;;12.00;99.90;;;;;;5096817;28;20036;-89
2023/11/05 04:49:12;;;;;;;1.60;0.80;;;12.00;99.90;;;;;;5095766;28;20071;-88
2023/11/05 04:51:42;;;;;;;2.30;0.80;;;12.00;99.90;;;;;;5095881;28;20028;-88
2023/11/05 04:54:11;;;;;;;3.67;0.80;;;12.00;99.90;;;;;;5077709;28;20020;-88
2023/11/05 04:56:37;;;;;;;2.17;0.80;;;12.00;99.90;;;;;;5077261;28;20028;-88
2023/11/05 04:59:05;;;;;;;2.60;0.90;;;12.00;99.90;;;;;;5094180;28;20032;-88
2023/11/05 05:01:31;;;;;;;1.88;0.80;;;12.00;99.90;;;;;;5094969;28;20020;-88
2023/11/05 05:03:59;;;;;;;2.72;1.08;;;12.00;99.90;;;;;;5094062;28;20088;-88
2023/11/05 05:06:32;;;;;;;2.80;0.95;;;12.00;99.90;;;;;;5093578;28;20028;-88
2023/11/05 05:09:00;;;;;;;2.58;0.80;;;12.00;99.90;;;;;;5094029;28;20066;-89
2023/11/05 05:11:28;;;;;;;2.13;0.90;;;12.00;99.90;;;;;;5093687;28;20529;-89
2023/11/05 05:13:59;;;;;;;2.35;0.95;;;12.10;99.90;;;;;;5093767;28;20020;-88
2023/11/05 05:16:28;;;;;;;3.30;1.02;;;12.10;99.90;;;;;;5093639;28;20020;-88
2023/11/05 05:18:56;;;;;;;3.38;1.13;;;12.10;99.90;;;;;;5093630;28;20066;-89
2023/11/05 05:21:25;;;;;;;2.75;0.85;;;12.10;99.90;;;;;;5093651;28;20016;-90
2023/11/05 05:23:50;;;;;;;2.03;0.75;;;12.10;99.90;;;;;;5093722;28;20020;-87
2023/11/05 05:26:18;;;;;;;2.97;1.02;;;12.10;99.90;;;;;;5076422;28;20089;-87
2023/11/05 05:28:44;;;;;;;2.13;0.90;;;12.10;99.90;;;;;;5076502;28;20027;-88
2023/11/05 05:31:13;;;;;;;6.45;1.13;;;12.10;99.90;;;;;;5092992;28;20027;-89
2023/11/05 05:33:38;;;;;;;3.80;1.13;;;12.10;99.90;;;;;;5093380;28;20048;-88
2023/11/05 05:36:07;;;;;;;4.38;0.88;;;12.10;99.90;;;;;;5094569;28;20055;-88
2023/11/05 05:38:37;;;;;;;3.45;1.05;;;12.10;99.90;;;;;;5083977;28;20024;-88
2023/11/05 05:41:12;;;;;;;2.90;1.15;;;12.10;99.90;;;;;;5073143;28;20106;-88
2023/11/05 05:43:40;;;;;;;1.95;0.88;;;12.10;99.90;;;;;;5073232;28;20040;-88
2023/11/05 05:46:15;;;;;;;3.92;0.93;;;12.10;99.90;;;;;;5086323;28;20145;-89
2023/11/05 05:48:43;;;;;;;4.88;1.30;;;12.10;99.90;;;;;;5073740;28;20052;-89
2023/11/05 05:51:12;;;;;;;2.85;1.08;;;12.10;99.90;;;;;;5073111;28;20064;-88
2023/11/05 05:53:40;;;;;;;1.92;0.70;;;12.20;99.90;;;;;;5086696;28;20028;-88
2023/11/05 05:56:06;;;;;;;3.30;1.17;;;12.20;99.90;;;;;;5093338;28;20021;-88
2023/11/05 05:58:32;;;;;;;3.05;1.13;;;12.20;99.90;;;;;;5076110;28;20028;-88
2023/11/05 06:00:59;;;;;;;1.90;0.80;;;12.20;99.90;;;;;;5093821;28;20060;-88
2023/11/05 06:03:27;;;;;;;3.40;1.55;;;12.20;99.90;;;;;;5093021;28;20031;-89
2023/11/05 06:05:56;;;;;;;2.85;1.15;;;12.20;99.90;;;;;;5092161;28;20115;-88
2023/11/05 06:08:25;;;;;;;2.72;1.33;;;12.20;99.90;;;;;;5096323;28;20070;-89
2023/11/05 06:10:51;;;;;;;1.65;0.88;;;12.20;99.90;;;;;;5077237;28;20037;-89
2023/11/05 06:13:20;;;;;;;3.85;0.88;;;12.20;99.90;;;;;;5078805;28;20017;-89
2023/11/05 06:15:46;;;;;;;2.70;1.10;;;12.20;99.90;;;;;;5096969;28;20029;-88
2023/11/05 06:18:19;;;;;;;2.38;1.13;;;12.20;99.90;;;;;;5087157;28;20044;-88
2023/11/05 06:20:48;;;;;;;3.65;1.08;;;12.20;99.90;;;;;;5103187;28;20038;-91
2023/11/05 06:23:24;;;;;;;3.83;1.00;;;12.20;99.90;;;;;;5109076;28;20039;-89
2023/11/05 06:25:59;;;;;;;2.67;0.82;;;12.20;99.90;;;;;;5116524;28;20107;-88
2023/11/05 06:28:30;;;;;;;2.75;0.88;;;12.30;99.90;;;;;;5097793;28;20031;-89
2023/11/05 06:30:56;;;;;;;3.33;0.95;;;12.30;99.90;;;;;;5079159;28;20033;-87
2023/11/05 06:33:24;;;;;;;3.17;1.08;;;12.30;99.90;;;;;;5087241;28;20027;-88
2023/11/05 06:35:57;;;;;;;2.63;0.98;;;12.30;99.90;;;;;;5097563;28;20024;-88
2023/11/05 06:38:23;;;;;;;3.72;1.13;;;12.30;99.90;;;;;;5097580;28;20021;-88
2023/11/05 06:40:49;;;;;;;2.20;0.95;;;12.30;99.90;;;;;;5079813;28;20046;-89
2023/11/05 06:43:14;;;;;;;3.25;1.35;;;12.30;99.90;;;;;;5096485;28;20471;-88
2023/11/05 06:45:46;;;;;;;3.15;0.80;;;12.30;99.90;;;;;;5092572;28;20033;-88
2023/11/05 06:48:11;;;;;;;3.17;1.00;;;12.30;99.90;;;;;;5075964;28;20450;-89
2023/11/05 06:50:37;;;;;;;3.00;0.90;;;12.30;99.90;;;;;;5092011;28;20028;-88
2023/11/05 06:53:03;;;;;;;4.30;1.40;;;12.30;99.90;;;;;;5096299;28;20066;-89
2023/11/05 06:55:31;;;;;;;4.15;0.90;;;12.30;99.90;;;;;;5096104;28;20024;-91
2023/11/05 06:58:00;;;;;;;3.35;1.00;;;12.40;99.90;;;;;;5095523;28;20055;-88
2023/11/05 07:00:31;;;;;;;2.22;0.90;;;12.40;99.90;;;;;;5096893;28;20051;-88
2023/11/05 07:02:57;;;;;;;;;;;12.40;99.90;;;;;;5095005;28;20020;-88
2023/11/05 07:05:22;;;;;;;1.67;0.70;;;12.40;99.90;;;;;;5093325;28;19969;-89
2023/11/05 07:07:52;;;;;;;2.35;1.17;;;12.30;99.90;;;;;;5096964;28;20024;-89
2023/11/05 07:10:21;;;;;;;1.48;0.80;;;12.30;99.90;;;;;;5063413;28;20127;-88
2023/11/05 07:12:47;;;;;;;3.67;0.98;;;12.40;99.90;;;;;;5095803;28;20028;-89
2023/11/05 07:15:13;;;;;;;2.88;0.90;;;12.40;99.90;;;;;;5097210;28;20102;-89
2023/11/05 07:17:48;;;;;;;1.30;0.73;;;12.40;99.90;;;;;;5092913;28;20028;-87
2023/11/05 07:20:14;;;;;;;3.28;1.35;;;12.40;99.90;;;;;;5091288;28;20369;-90
2023/11/05 07:22:43;;;;;;;3.30;0.88;;;12.40;99.90;;;;;;5092970;28;20031;-87
2023/11/05 07:25:08;;;;;;;3.13;1.00;;;12.40;99.90;;;;;;5075097;28;20024;-89
2023/11/05 07:27:36;;;;;;;3.28;0.93;;;12.40;99.90;;;;;;5058555;28;20029;-88
2023/11/05 07:30:03;;;;;;;2.90;1.10;;;12.40;99.90;;;;;;5092061;28;20379;-88
2023/11/05 07:32:29;;;;;;;1.98;0.90;;;12.40;99.90;;;;;;5074451;28;20052;-89
2023/11/05 07:34:55;;;;;;;3.83;1.23;;;12.50;99.90;;;;;;5081517;28;20517;-88
2023/11/05 07:37:20;;;;;;;3.95;1.25;;;12.50;99.90;;;;;;5095576;28;20016;-87
2023/11/05 07:39:46;;;;;;;2.95;1.30;;;12.50;99.90;;;;;;5094984;28;20032;-88
2023/11/05 07:42:12;;;;;;;2.17;0.98;;;12.50;99.90;;;;;;5079037;28;20024;-88
2023/11/05 07:44:37;;;;;;;2.55;1.10;;;12.50;99.90;;;;;;5095454;28;20016;-87
2023/11/05 07:47:03;;;;;;;3.72;1.00;;;12.60;99.90;;;;;;5090575;28;20384;-87
2023/11/05 07:49:29;;;;;;;3.80;1.50;;;12.50;99.90;;;;;;5083569;28;20041;-89
2023/11/05 07:51:56;;;;;;;2.58;1.00;;;12.60;99.90;;;;;;5090970;28;20020;-88
2023/11/05 07:54:22;;;;;;;3.67;1.23;;;12.60;99.90;;;;;;5109518;28;20012;-87
2023/11/05 07:56:52;;;;;;;3.67;1.20;;;12.60;99.90;;;;;;5119316;28;20038;-89
2023/11/05 07:59:21;;;;;;;2.90;1.30;;;12.60;99.90;;;;;;5119408;28;20036;-88
2023/11/05 08:01:47;;;;;;;4.35;1.48;;;12.60;99.90;;;;;;5095876;28;20037;-88
2023/11/05 08:04:12;;;;;;;4.10;1.40;;;12.60;99.90;;;;;;5085663;28;20028;-88
2023/11/05 08:06:38;;;;;;;3.38;1.48;;;12.70;99.90;;;;;;5058153;28;20117;-90
2023/11/05 08:09:04;;;;;;;4.28;1.33;;;12.60;99.90;;;;;;5092797;28;20024;-88
2023/11/05 08:11:30;;;;;;;4.63;1.50;;;12.70;99.90;;;;;;5090239;28;20020;-89
2023/11/05 08:13:56;;;;;;;3.30;1.60;;;12.70;99.90;;;;;;5088679;28;20085;-88
2023/11/05 08:16:24;;;;;;;4.97;1.50;;;12.70;99.90;;;;;;5096169;28;20055;-88
2023/11/05 08:18:50;;;;;;;4.18;1.40;;;12.70;99.90;;;;;;5074497;28;20112;-88
2023/11/05 08:21:23;;;;;;;5.32;1.73;;;12.60;99.90;;;;;;5076554;28;20123;-88
2023/11/05 08:23:49;;;;;;;3.33;1.30;;;12.70;99.90;;;;;;5095209;28;20038;-88
2023/11/05 08:26:17;;;;;;;2.03;1.23;;;12.70;99.90;;;;;;5093147;28;20016;-89
2023/11/05 08:28:45;;;;;;;3.30;1.20;;;12.70;99.90;;;;;;5093663;28;20021;-88
2023/11/05 08:31:11;;;;;;;4.32;1.58;;;12.70;99.90;;;;;;5095410;28;20066;-88
2023/11/05 08:33:39;;;;;;;4.93;1.40;;;12.70;99.90;;;;;;5084761;28;20123;-87
2023/11/05 08:36:06;;;;;;;3.75;1.50;;;12.70;99.90;;;;;;5088639;28;20482;-88
2023/11/05 08:38:37;;;;;;;4.22;1.30;;;12.70;99.90;;;;;;5090544;28;20025;-88
2023/11/05 08:41:03;;;;;;;4.13;1.27;;;12.70;99.90;;;;;;5084880;28;20024;-88
2023/11/05 08:43:32;;;;;;;2.78;1.45;;;12.70;99.90;;;;;;5077431;28;20371;-90
2023/11/05 08:45:58;;;;;;;4.55;1.40;;;12.80;99.90;;;;;;5094030;28;20035;-89
2023/11/05 08:48:24;;;;;;;4.40;1.30;;;12.80;99.90;;;;;;5093704;28;20040;-89
2023/11/05 08:50:49;;;;;;;5.10;1.83;;;12.80;99.90;;;;;;5087308;28;20090;-88
2023/11/05 08:53:15;;;;;;;4.43;1.55;;;12.80;99.90;;;;;;5073859;28;20020;-88
2023/11/05 08:55:41;;;;;;;4.20;1.38;;;12.90;99.90;;;;;;5067191;28;20048;-89
2023/11/05 08:58:06;;;;;;;4.78;1.55;;;12.90;99.90;;;;;;5093688;28;20034;-88
2023/11/05 09:00:35;;;;;;;3.15;1.52;;;12.90;99.90;;;;;;5076743;28;20114;-88
2023/11/05 09:03:01;;;;;;;4.55;1.77;;;12.90;99.90;;;;;;5076446;28;20016;-88
2023/11/05 09:05:27;;;;;;;4.18;1.52;;;12.90;99.90;;;;;;5092570;28;20735;-88
2023/11/05 09:07:55;;;;;;;5.45;1.92;;;13.00;99.90;;;;;;5062544;28;20032;-88
2023/11/05 09:10:22;;;;;;;5.03;2.10;;;13.00;99.90;;;;;;5074446;28;20035;-88
2023/11/05 09:12:48;;;;;;;4.88;1.65;;;13.00;99.90;;;;;;5089041;28;20084;-89
2023/11/05 09:15:15;;;;;;;4.55;1.88;;;13.00;99.90;;;;;;5094133;28;20031;-88
2023/11/05 09:17:43;;;;;;;5.25;2.00;;;13.00;99.90;;;;;;5093818;28;20162;-88
2023/11/05 09:20:13;;;;;;;4.32;1.60;;;13.00;99.90;;;;;;5093963;28;20133;-89
2023/11/05 09:22:42;;;;;;;3.17;1.60;;;13.00;99.90;;;;;;5093374;28;20024;-88
2023/11/05 09:25:13;;;;;;;7.13;1.90;;;13.10;99.90;;;;;;5090027;28;20062;-88
2023/11/05 09:27:42;;;;;;;7.93;2.05;;;13.10;99.90;;;;;;5057722;28;20040;-89
2023/11/05 09:30:12;;;;;;;3.75;1.92;;;13.10;99.90;;;;;;5090173;28;20040;-86
2023/11/05 09:32:43;;;;;;;3.20;1.50;;;13.10;99.90;;;;;;5097849;28;20032;-89
2023/11/05 09:35:12;;;;;;;4.72;2.10;;;13.10;99.90;;;;;;5117371;28;20039;-90
2023/11/05 09:37:43;;;;;;;4.00;1.95;;;13.10;99.90;;;;;;5115355;28;20035;-90
2023/11/05 09:40:14;;;;;;;4.90;2.00;;;13.10;99.90;;;;;;5096180;28;20042;-89
2023/11/05 09:42:58;;;;;;;3.75;1.73;;;13.10;99.90;;;;;;5097624;28;20026;-87
2023/11/05 09:45:28;;;;;;;4.50;1.85;;;13.10;99.90;;;;;;5083009;28;20036;-88
2023/11/05 09:47:55;;;;;;;4.57;1.85;;;13.10;99.90;;;;;;5077969;28;20049;-88
2023/11/05 09:50:21;;;;;;;6.32;2.30;;;13.10;99.90;;;;;;5077187;28;20036;-88
2023/11/05 09:52:47;;;;;;;5.93;2.40;;;13.10;99.90;;;;;;5078372;28;20383;-88
2023/11/05 09:55:13;;;;;;;7.22;2.40;;;13.10;99.90;;;;;;5060241;28;20472;-88
2023/11/05 09:57:39;;;;;;;5.85;2.40;;;13.00;99.90;;;;;;5081601;28;20078;-88
2023/11/05 10:00:09;;;;;;;4.65;2.05;;;13.10;99.90;;;;;;5076646;28;20468;-88
2023/11/05 10:02:55;;;;;;;4.93;2.33;;;13.10;99.90;;;;;;5061170;28;20029;-88
2023/11/05 10:05:22;;;;;;;4.82;2.35;;;13.10;99.90;;;;;;5063315;28;20020;-88
2023/11/05 10:07:51;;;;;;;5.35;2.60;;;13.10;99.90;;;;;;5096955;28;20024;-87
2023/11/05 10:10:17;;;;;;;5.22;2.63;;;13.10;99.90;;;;;;5094919;28;20490;-89
2023/11/05 10:12:43;;;;;;;3.60;2.20;;;13.10;99.90;;;;;;5081726;28;20039;-88
2023/11/05 10:15:12;;;;;;;4.85;2.38;;;13.10;99.90;;;;;;5096587;28;20460;-88
2023/11/05 10:17:40;;;;;;;4.30;2.30;;;13.10;99.90;;;;;;5064934;28;20107;-88
2023/11/05 10:20:06;;;;;;;5.50;2.50;;;13.10;99.90;;;;;;5098005;28;20020;-88
2023/11/05 10:22:33;;;;;;;5.32;2.58;;;13.10;99.90;;;;;;5077786;28;20029;-89
2023/11/05 10:24:59;;;;;;;5.75;2.80;;;13.10;99.90;;;;;;5096196;28;20067;-89
2023/11/05 10:27:30;;;;;;;6.32;2.53;;;13.10;99.90;;;;;;5096832;28;20032;-89
2023/11/05 10:30:01;;;;;;;4.70;2.88;;;13.20;99.90;;;;;;5096852;28;20119;-88
2023/11/05 10:32:27;;;;;;;7.82;3.30;;;13.10;99.90;;;;;;5096601;28;20055;-89
2023/11/05 10:34:56;;;;;;;6.57;3.00;;;13.10;99.90;;;;;;5079833;28;20028;-88
2023/11/05 10:37:22;;;;;;;6.35;3.20;;;13.10;99.90;;;;;;5096739;28;20044;-88
2023/11/05 10:39:48;;;;;;;5.18;3.20;;;13.20;99.90;;;;;;5095804;28;20063;-89
2023/11/05 10:42:14;;;;;;;6.82;3.15;;;13.10;99.90;;;;;;5093330;28;20035;-88
2023/11/05 10:44:46;;;;;;;4.88;3.00;;;13.10;99.90;;;;;;5096535;28;20020;-88
2023/11/05 10:47:12;;;;;;;6.07;3.42;;;13.10;99.90;;;;;;5080784;28;20013;-90
2023/11/05 10:49:43;;;;;;;4.65;2.70;;;13.10;99.90;;;;;;5076087;28;20044;-88
2023/11/05 10:52:12;;;;;;;6.28;3.47;;;13.10;99.90;;;;;;5086661;28;20095;-88
2023/11/05 10:55:48;;;;;;;5.60;3.10;;;13.10;99.90;;;;;;5096396;28;20032;-88
2023/11/05 10:58:23;;;;;;;4.45;2.70;;;13.10;99.90;;;;;;5090884;28;20031;-87
2023/11/05 11:00:50;;;;;;;6.30;2.85;;;13.10;99.90;;;;;;5076468;28;20039;-87
2023/11/05 11:03:15;;;;;;;3.85;2.60;;;13.10;99.90;;;;;;5094702;28;20024;-89
2023/11/05 11:05:44;;;;;;;4.72;2.70;;;13.00;99.90;;;;;;5096932;28;20097;-87
2023/11/05 11:08:15;;;;;;;4.82;2.58;;;13.00;99.90;;;;;;5104974;28;20080;-88
2023/11/05 11:10:49;;;;;;;5.60;2.50;;;13.00;99.90;;;;;;5099263;28;20028;-89
2023/11/05 11:13:17;;;;;;;4.82;2.50;;;12.90;99.90;;;;;;5119263;28;20042;-89
2023/11/05 11:15:52;;;;;;;3.50;2.35;;;12.90;99.90;;;;;;5120493;28;20013;-88
2023/11/05 11:18:23;;;;;;;3.50;2.60;;;12.90;99.90;;;;;;5104152;28;20424;-88
2023/11/05 11:20:53;;;;;;;4.63;2.72;;;12.90;99.90;;;;;;5076405;28;20024;-87
2023/11/05 11:23:21;;;;;;;4.55;2.55;;;12.80;99.90;;;;;;5095659;28;20051;-88
2023/11/05 11:26:01;;;;;;;5.22;2.60;;;12.80;99.90;;;;;;5095545;28;20455;-87
2023/11/05 11:28:32;;;;;;;4.10;2.20;;;12.80;99.90;;;;;;5080592;28;20029;-88
2023/11/05 11:30:58;;;;;;;3.85;2.38;;;12.80;99.90;;;;;;5059057;28;20036;-87
2023/11/05 11:33:25;;;;;;;3.38;2.13;;;12.80;99.90;;;;;;5081409;28;20027;-90
2023/11/05 11:35:51;;;;;;;6.05;3.05;;;12.70;99.90;;;;;;5095365;28;20107;-89
2023/11/05 11:38:17;;;;;;;4.32;2.38;;;12.70;99.90;;;;;;5087025;28;20433;-89
2023/11/05 11:40:59;;;;;;;7.90;2.65;;;12.70;99.90;;;;;;5075300;28;20035;-87
2023/11/05 11:43:27;;;;;;;7.63;2.90;;;12.70;99.90;;;;;;5080120;28;20031;-89
2023/11/05 11:45:53;;;;;;;7.13;2.90;;;12.70;99.90;;;;;;5096507;28;20464;-88
2023/11/05 11:48:25;;;;;;;6.63;2.85;;;12.70;99.90;;;;;;5091559;28;20059;-89
2023/11/05 11:50:55;;;;;;;5.70;2.80;;;12.70;99.90;;;;;;5059942;28;20039;-89
2023/11/05 11:53:32;;;;;;;7.05;2.75;;;12.80;99.90;;;;;;5074642;28;20082;-89
2023/11/05 11:55:59;;;;;;;6.00;2.58;;;12.80;99.90;;;;;;5074886;28;20024;-88
2023/11/05 11:58:25;;;;;;;10.43;3.72;;;12.80;99.90;;;;;;5087235;28;20056;-90
2023/11/05 12:00:57;;;;;;;7.72;2.85;;;12.80;99.90;;;;;;5078367;28;20028;-90
2023/11/05 12:03:27;;;;;;;8.13;2.85;;;12.90;99.90;;;;;;5087158;28;20048;-89
2023/11/05 12:05:53;;;;;;;7.93;3.35;;;12.90;99.90;;;;;;5078111;28;20020;-89
2023/11/05 12:08:42;;;;;;;7.63;2.92;;;13.00;99.90;;;;;;5094485;28;20035;-88
2023/11/05 12:11:13;;;;;;;8.38;2.50;;;13.00;99.90;;;;;;5094590;28;20449;-88
2023/11/05 12:13:43;;;;;;;6.20;2.58;;;13.10;99.90;;;;;;5094723;28;20032;-89
2023/11/05 12:16:11;;;;;;;8.40;2.40;;;13.10;99.90;;;;;;5094336;28;20024;-89
2023/11/05 12:18:40;;;;;;;7.05;2.45;;;13.10;99.90;;;;;;5079919;28;20094;-87
2023/11/05 12:21:15;;;;;;;5.30;2.17;;;13.20;99.90;;;;;;5095457;28;20468;-89
2023/11/05 12:23:42;;;;;;;3.85;2.10;;;13.20;99.90;;;;;;5083380;28;20482;-89
2023/11/05 12:26:09;;;;;;;3.95;2.08;;;13.20;99.90;;;;;;5091838;28;20031;-89
2023/11/05 12:28:36;;;;;;;5.70;2.05;;;13.20;99.90;;;;;;5095497;28;20027;-89
2023/11/05 12:31:03;;;;;;;4.90;1.92;;;13.20;99.90;;;;;;5077199;28;20101;-87
2023/11/05 12:33:34;;;;;;;3.10;1.75;;;13.10;99.90;;;;;;5098285;28;21405;-88
2023/11/05 12:36:00;;;;;;;4.10;1.77;;;13.10;99.90;;;;;;5082297;28;20024;-89
2023/11/05 12:38:26;;;;;;;3.85;2.00;;;13.10;99.90;;;;;;5094112;28;20016;-88
2023/11/05 12:40:52;;;;;;;2.53;1.30;;;13.10;99.90;;;;;;5095189;28;20421;-88
2023/11/05 12:43:19;;;;;;;3.70;1.65;;;13.00;99.90;;;;;;5077674;28;20032;-88
2023/11/05 12:45:47;;;;;;;3.40;1.70;;;13.00;99.90;;;;;;5085274;28;20040;-89
2023/11/05 12:48:18;;;;;;;5.00;1.75;;;13.00;99.90;;;;;;5117974;28;20138;-92
2023/11/05 12:50:44;;;;;;;3.35;1.77;;;13.00;99.90;;;;;;5118703;28;20039;-88
2023/11/05 12:53:11;;;;;;;3.78;1.60;;;13.10;99.90;;;;;;5118362;28;20035;-90